createdAt,value
2023-03-05T00:01:46.662Z,7.28
2023-03-05T00:07:12.373Z,7.18
2023-03-05T00:12:36.154Z,5.85
2023-03-05T00:18:01.292Z,7.35
2023-03-05T00:23:25.034Z,6.93
2023-03-05T00:28:50.280Z,7.32
2023-03-05T00:34:18.140Z,6.63
2023-03-05T00:39:41.933Z,6.05
2023-03-05T00:45:06.659Z,5.43
2023-03-05T00:50:31.835Z,6.43
2023-03-05T00:55:56.090Z,6.22
2023-03-05T01:01:20.221Z,6.32
2023-03-05T01:06:46.818Z,6.03
2023-03-05T01:12:10.993Z,4.78
2023-03-05T01:17:34.749Z,6.78
2023-03-05T01:23:01.749Z,6.47
2023-03-05T01:28:26.017Z,7.10
2023-03-05T01:33:52.384Z,7.28
2023-03-05T01:39:17.466Z,7.85
2023-03-05T01:44:41.274Z,7.78
2023-03-05T01:50:07.125Z,7.47
2023-03-05T01:55:37.242Z,7.47
2023-03-05T02:01:01.011Z,7.72
2023-03-05T02:06:24.866Z,7.00
2023-03-05T02:11:50.238Z,7.50
2023-03-05T02:17:14.585Z,6.53
2023-03-05T02:22:39.732Z,7.95
2023-03-05T02:28:08.214Z,6.78
2023-03-05T02:33:31.981Z,6.38
2023-03-05T02:38:59.163Z,6.10
2023-03-05T02:44:23.494Z,7.03
2023-03-05T02:49:47.406Z,6.43
2023-03-05T02:55:12.741Z,5.82
2023-03-05T03:00:37.486Z,6.18
2023-03-05T03:06:01.482Z,7.63
2023-03-05T03:11:26.548Z,6.10
2023-03-05T03:16:50.542Z,6.70
2023-03-05T03:22:16.482Z,7.45
2023-03-05T03:27:41.565Z,7.50
2023-03-05T03:33:05.299Z,7.93
2023-03-05T03:38:29.050Z,7.40
2023-03-05T03:43:54.172Z,7.50
2023-03-05T03:49:20.096Z,7.15
2023-03-05T03:54:43.948Z,7.40
2023-03-05T04:00:12.141Z,7.72
2023-03-05T04:05:35.860Z,7.68
2023-03-05T04:11:01.943Z,7.05
2023-03-05T04:16:27.107Z,6.38
2023-03-05T04:21:50.843Z,7.10
2023-03-05T04:27:14.617Z,6.57
2023-03-05T04:32:39.807Z,8.18
2023-03-05T04:38:03.704Z,7.63
2023-03-05T04:43:27.505Z,8.23
2023-03-05T04:48:52.567Z,7.60
2023-03-05T04:54:16.463Z,7.70
2023-03-05T04:59:40.344Z,7.13
2023-03-05T05:05:05.790Z,7.85
2023-03-05T05:10:29.534Z,7.18
2023-03-05T05:15:53.375Z,7.47
2023-03-05T05:21:20.375Z,7.57
2023-03-05T05:26:44.121Z,7.60
2023-03-05T05:32:08.158Z,8.02
2023-03-05T05:37:33.372Z,6.70
2023-03-05T05:42:57.229Z,7.70
2023-03-05T05:48:21.894Z,8.48
2023-03-05T05:53:48.035Z,7.22
2023-03-05T05:59:12.253Z,6.97
2023-03-05T06:04:36.878Z,7.85
2023-03-05T06:10:02.179Z,7.45
2023-03-05T06:15:26.121Z,7.00
2023-03-05T06:20:55.657Z,7.88
2023-03-05T06:26:22.934Z,9.20
2023-03-05T06:31:46.705Z,8.40
2023-03-05T06:37:10.456Z,8.20
2023-03-05T06:42:36.264Z,9.70
2023-03-05T06:48:00.042Z,5.93
2023-03-05T06:53:25.157Z,8.60
2023-03-05T06:58:53.305Z,14.18
2023-03-05T07:04:17.567Z,10.63
2023-03-05T07:09:44.079Z,9.27
2023-03-05T07:15:10.273Z,8.60
2023-03-05T07:20:35.512Z,9.25
2023-03-05T07:26:01.525Z,9.13
2023-03-05T07:31:30.998Z,8.45
2023-03-05T07:36:54.847Z,9.40
2023-03-05T07:42:18.679Z,9.45
2023-03-05T07:47:57.220Z,8.55
2023-03-05T07:53:21.050Z,9.88
2023-03-05T07:58:45.495Z,9.48
2023-03-05T08:04:11.000Z,6.57
2023-03-05T08:09:34.825Z,9.30
2023-03-05T08:14:58.639Z,8.73
2023-03-05T08:20:23.806Z,9.50
2023-03-05T08:25:47.642Z,8.27
2023-03-05T08:31:11.711Z,8.18
2023-03-05T08:36:36.845Z,8.75
2023-03-05T08:42:00.619Z,8.13
2023-03-05T08:47:26.663Z,9.00
2023-03-05T08:52:51.977Z,11.50
2023-03-05T08:58:15.760Z,6.75
2023-03-05T09:03:39.946Z,7.72
2023-03-05T09:09:05.188Z,7.65
2023-03-05T09:14:29.519Z,8.43
2023-03-05T09:19:53.327Z,7.70
2023-03-05T09:25:18.486Z,8.45
2023-03-05T09:30:42.236Z,8.20
2023-03-05T09:36:07.678Z,7.28
2023-03-05T09:41:44.120Z,9.48
2023-03-05T09:47:21.116Z,8.95
2023-03-05T09:52:47.888Z,8.98
2023-03-05T09:58:17.114Z,8.52
2023-03-05T10:03:52.470Z,9.10
2023-03-05T10:09:25.057Z,8.20
2023-03-05T10:14:50.504Z,9.63
2023-03-05T10:20:32.086Z,8.38
2023-03-05T10:26:07.831Z,6.78
2023-03-05T10:31:57.831Z,7.80
2023-03-05T10:37:53.386Z,8.55
2023-03-05T10:43:25.162Z,8.27
2023-03-05T10:48:54.432Z,7.07
2023-03-05T10:54:25.458Z,5.15
2023-03-05T10:59:51.544Z,6.23
2023-03-05T11:05:37.964Z,5.22
2023-03-05T11:11:11.545Z,5.97
2023-03-05T11:16:46.989Z,6.57
2023-03-05T11:22:17.426Z,5.60
2023-03-05T11:27:51.993Z,7.60
2023-03-05T11:33:20.579Z,5.65
2023-03-05T11:38:53.592Z,6.55
2023-03-05T11:44:22.669Z,7.05
2023-03-05T11:49:49.880Z,6.97
2023-03-05T11:55:18.285Z,4.50
2023-03-05T12:00:45.491Z,5.72
2023-03-05T12:06:18.715Z,7.28
2023-03-05T12:11:44.696Z,7.43
2023-03-05T12:17:14.187Z,6.78
2023-03-05T12:22:40.905Z,5.88
2023-03-05T12:28:06.040Z,5.05
2023-03-05T12:33:38.065Z,4.38
2023-03-05T12:39:02.131Z,5.78
2023-03-05T12:44:27.304Z,4.93
2023-03-05T12:49:51.772Z,6.35
2023-03-05T12:55:23.480Z,4.97
2023-03-05T13:06:26.353Z,4.07
2023-03-05T13:11:53.070Z,4.78
2023-03-05T13:17:39.404Z,4.53
2023-03-05T13:23:22.399Z,4.75
2023-03-05T13:28:47.045Z,4.43
2023-03-05T13:34:17.772Z,4.15
2023-03-05T13:39:45.228Z,4.35
2023-03-05T13:45:23.447Z,4.35
2023-03-05T13:50:55.532Z,4.00
2023-03-05T13:56:22.835Z,4.53
2023-03-05T14:01:48.250Z,4.28
2023-03-05T14:07:30.958Z,4.05
2023-03-05T14:12:55.509Z,4.55
2023-03-05T14:18:20.889Z,5.00
2023-03-05T14:23:47.317Z,4.43
2023-03-05T14:29:17.636Z,3.45
2023-03-05T14:34:43.184Z,4.03
2023-03-05T14:40:20.666Z,4.43
2023-03-05T14:45:45.364Z,5.63
2023-03-05T14:51:11.564Z,5.32
2023-03-05T14:56:36.762Z,5.47
2023-03-05T15:02:00.544Z,5.50
2023-03-05T15:07:27.943Z,3.55
2023-03-05T15:12:53.609Z,5.30
2023-03-05T15:18:20.411Z,5.03
2023-03-05T15:23:45.038Z,4.70
2023-03-05T15:29:10.184Z,5.22
2023-03-05T15:34:34.901Z,4.85
2023-03-05T15:39:58.749Z,5.53
2023-03-05T15:45:24.274Z,4.40
2023-03-05T15:50:48.070Z,4.65
2023-03-05T15:56:15.850Z,3.67
2023-03-05T16:01:42.067Z,4.70
2023-03-05T16:07:06.420Z,5.00
2023-03-05T16:12:37.437Z,5.13
2023-03-05T16:18:07.331Z,4.60
2023-03-05T16:23:31.074Z,4.63
2023-03-05T16:28:54.868Z,4.25
2023-03-05T16:34:20.249Z,7.43
2023-03-05T16:39:43.977Z,5.55
2023-03-05T16:45:09.255Z,3.85
2023-03-05T16:50:34.417Z,4.10
2023-03-05T16:55:58.296Z,4.80
2023-03-05T17:01:23.251Z,4.13
2023-03-05T17:06:49.302Z,7.85
2023-03-05T17:12:13.106Z,3.63
2023-03-05T17:17:38.483Z,3.63
2023-03-05T17:23:03.961Z,3.70
2023-03-05T17:28:27.699Z,4.53
2023-03-05T17:33:51.940Z,4.30
2023-03-05T17:39:18.897Z,4.38
2023-03-05T17:44:42.954Z,7.40
2023-03-05T17:50:08.536Z,5.43
2023-03-05T17:55:33.885Z,5.50
2023-03-05T18:00:57.641Z,7.25
2023-03-05T18:06:21.375Z,5.57
2023-03-05T18:11:46.506Z,4.55
2023-03-05T18:17:10.512Z,4.05
2023-03-05T18:22:34.389Z,4.35
2023-03-05T18:28:00.442Z,4.03
2023-03-05T18:33:26.164Z,3.97
2023-03-05T18:38:49.970Z,4.32
2023-03-05T18:44:15.816Z,5.07
2023-03-05T18:49:39.548Z,6.20
2023-03-05T18:55:03.307Z,5.10
2023-03-05T19:00:31.515Z,4.55
2023-03-05T19:05:55.358Z,4.53
2023-03-05T19:11:20.569Z,4.65
2023-03-05T19:16:45.756Z,4.22
2023-03-05T19:22:10.356Z,4.28
2023-03-05T19:27:34.148Z,4.38
2023-03-05T19:32:59.267Z,4.53
2023-03-05T19:38:23.061Z,4.13
2023-03-05T19:43:47.404Z,4.53
2023-03-05T19:49:12.641Z,4.20
2023-03-05T19:54:36.652Z,4.85
2023-03-05T20:00:01.297Z,4.22
2023-03-05T20:05:26.674Z,4.25
2023-03-05T20:10:50.430Z,4.53
2023-03-05T20:16:16.953Z,5.57
2023-03-05T20:21:42.503Z,7.07
2023-03-05T20:27:06.262Z,6.60
2023-03-05T20:32:30.003Z,7.75
2023-03-05T20:38:29.612Z,7.43
2023-03-05T20:43:53.515Z,7.90
2023-03-05T20:49:17.329Z,7.22
2023-03-05T20:54:42.534Z,6.85
2023-03-05T21:00:08.140Z,7.20
2023-03-05T21:05:32.172Z,6.82
2023-03-05T21:10:57.604Z,7.07
2023-03-05T21:16:23.402Z,7.10
2023-03-05T21:21:47.235Z,7.47
2023-03-05T21:27:12.397Z,7.55
2023-03-05T21:32:36.637Z,7.88
2023-03-05T21:38:00.437Z,7.75
2023-03-05T21:43:27.004Z,8.52
2023-03-05T21:48:50.856Z,7.68
2023-03-05T21:54:14.749Z,6.70
2023-03-05T21:59:42.416Z,7.07
2023-03-05T22:05:07.921Z,7.47
2023-03-05T22:10:31.708Z,7.53
2023-03-05T22:15:58.010Z,6.38
2023-03-05T22:21:23.311Z,7.20
2023-03-05T22:26:47.091Z,6.07
2023-03-05T22:32:12.283Z,6.95
2023-03-05T22:37:36.125Z,6.55
2023-03-05T22:42:59.827Z,6.50
2023-03-05T22:48:24.893Z,6.35
2023-03-05T22:53:48.683Z,7.03
2023-03-05T22:59:13.167Z,8.32
2023-03-05T23:04:53.177Z,9.35
2023-03-05T23:10:19.137Z,8.27
2023-03-05T23:15:42.946Z,9.65
2023-03-05T23:21:08.195Z,8.07
2023-03-05T23:26:31.934Z,5.93
2023-03-05T23:31:55.942Z,5.55
2023-03-05T23:37:21.106Z,5.80
2023-03-05T23:42:45.520Z,5.63
2023-03-05T23:48:09.401Z,6.28
2023-03-05T23:53:34.726Z,5.97
2023-03-05T23:59:00.681Z,5.38
